createdAt,value
2018-05-01T00:01:22.490Z,11.20
2018-05-01T00:03:49.979Z,11.30
2018-05-01T00:06:17.434Z,11.29
2018-05-01T00:08:44.915Z,11.29
2018-05-01T00:11:12.394Z,11.30
2018-05-01T00:13:39.882Z,11.32
2018-05-01T00:16:07.337Z,11.31
2018-05-01T00:18:34.834Z,11.29
2018-05-01T00:21:02.294Z,11.25
2018-05-01T00:23:29.774Z,11.26
2018-05-01T00:25:57.238Z,11.28
2018-05-01T00:28:24.714Z,11.28
2018-05-01T00:30:52.170Z,11.25
2018-05-01T00:33:19.664Z,11.16
2018-05-01T00:35:47.946Z,11.07
2018-05-01T00:38:16.442Z,10.97
2018-05-01T00:40:43.895Z,10.84
2018-05-01T00:43:11.647Z,10.78
2018-05-01T00:45:39.107Z,10.73
2018-05-01T00:48:06.590Z,10.79
2018-05-01T00:50:34.050Z,10.89
2018-05-01T00:53:01.531Z,10.98
2018-05-01T00:55:29.010Z,11.03
2018-05-01T00:57:56.465Z,11.06
2018-05-01T01:00:23.946Z,11.06
2018-05-01T01:02:51.401Z,11.03
2018-05-01T01:05:18.884Z,11.05
2018-05-01T01:07:46.337Z,11.04
2018-05-01T01:10:13.817Z,11.04
2018-05-01T01:12:41.274Z,11.03
2018-05-01T01:15:08.763Z,11.07
2018-05-01T01:17:36.217Z,11.08
2018-05-01T01:20:03.693Z,11.05
2018-05-01T01:22:31.180Z,11.01
2018-05-01T01:24:58.697Z,10.95
2018-05-01T01:27:26.154Z,10.92
2018-05-01T01:29:53.633Z,10.90
2018-05-01T01:32:21.095Z,10.93
2018-05-01T01:34:48.782Z,10.93
2018-05-01T01:37:15.703Z,10.94
2018-05-01T01:39:42.642Z,10.93
2018-05-01T01:42:09.574Z,10.93
2018-05-01T01:44:36.514Z,10.94
2018-05-01T01:47:03.438Z,10.93
2018-05-01T01:49:30.378Z,10.90
2018-05-01T01:51:57.297Z,10.92
2018-05-01T01:54:24.234Z,10.90
2018-05-01T01:56:51.162Z,10.93
2018-05-01T01:59:18.105Z,10.90
2018-05-01T02:01:45.027Z,10.87
2018-05-01T02:04:11.969Z,10.82
2018-05-01T02:06:38.887Z,10.82
2018-05-01T02:09:05.830Z,10.81
2018-05-01T02:11:32.770Z,10.78
2018-05-01T02:13:59.714Z,10.74
2018-05-01T02:16:26.633Z,10.72
2018-05-01T02:18:53.570Z,10.73
2018-05-01T02:21:20.494Z,10.72
2018-05-01T02:23:47.410Z,10.66
2018-05-01T02:26:15.322Z,10.68
2018-05-01T02:28:42.280Z,10.63
2018-05-01T02:31:09.234Z,10.60
2018-05-01T02:33:36.159Z,10.59
2018-05-01T02:36:03.115Z,10.58
2018-05-01T02:38:30.043Z,10.59
2018-05-01T02:40:56.983Z,10.61
2018-05-01T02:43:23.930Z,10.59
2018-05-01T02:45:50.875Z,10.60
2018-05-01T02:48:17.803Z,10.60
2018-05-01T02:50:44.769Z,10.59
2018-05-01T02:53:11.687Z,10.65
2018-05-01T02:55:38.655Z,10.67
2018-05-01T02:58:05.578Z,10.67
2018-05-01T03:00:32.518Z,10.69
2018-05-01T03:02:59.434Z,10.70
2018-05-01T03:05:26.379Z,10.65
2018-05-01T03:07:53.300Z,10.64
2018-05-01T03:10:20.247Z,10.64
2018-05-01T03:12:47.172Z,10.61
2018-05-01T03:15:14.138Z,10.62
2018-05-01T03:17:41.054Z,10.61
2018-05-01T03:20:07.994Z,10.61
2018-05-01T03:22:34.906Z,10.57
2018-05-01T03:25:01.858Z,10.58
2018-05-01T03:27:28.774Z,10.51
2018-05-01T03:29:55.714Z,10.50
2018-05-01T03:32:22.638Z,10.51
2018-05-01T03:34:49.596Z,10.49
2018-05-01T03:37:16.520Z,10.49
2018-05-01T03:39:43.463Z,10.43
2018-05-01T03:42:10.393Z,10.43
2018-05-01T03:44:37.341Z,10.45
2018-05-01T03:47:04.258Z,10.43
2018-05-01T03:49:31.178Z,10.43
2018-05-01T03:51:58.114Z,10.44
2018-05-01T03:54:25.051Z,10.43
2018-05-01T03:56:51.999Z,10.41
2018-05-01T03:59:18.926Z,10.43
2018-05-01T04:01:45.867Z,10.39
2018-05-01T04:04:12.963Z,10.37
2018-05-01T04:06:39.902Z,10.35
2018-05-01T04:09:06.818Z,10.33
2018-05-01T04:11:33.762Z,10.36
2018-05-01T04:14:00.698Z,10.30
2018-05-01T04:16:27.644Z,10.30
2018-05-01T04:18:54.561Z,10.26
2018-05-01T04:21:21.497Z,10.22
2018-05-01T04:23:48.418Z,10.20
2018-05-01T04:26:15.358Z,10.20
2018-05-01T04:28:42.280Z,10.14
2018-05-01T04:31:09.246Z,10.18
2018-05-01T04:33:36.178Z,10.14
2018-05-01T04:36:03.142Z,10.13
2018-05-01T04:38:30.063Z,10.10
2018-05-01T04:40:57.019Z,10.11
2018-05-01T04:43:23.967Z,10.08
2018-05-01T04:45:50.914Z,10.07
2018-05-01T04:48:17.832Z,10.08
2018-05-01T04:50:44.769Z,10.03
2018-05-01T04:53:11.699Z,9.98
2018-05-01T04:55:38.641Z,9.90
2018-05-01T04:58:05.554Z,9.85
2018-05-01T05:00:32.494Z,9.81
2018-05-01T05:02:59.433Z,9.78
2018-05-01T05:05:26.371Z,9.80
2018-05-01T05:07:53.294Z,9.79
2018-05-01T05:10:20.236Z,9.74
2018-05-01T05:12:47.178Z,9.75
2018-05-01T05:15:14.094Z,9.68
2018-05-01T05:17:42.942Z,9.62
2018-05-01T05:20:10.782Z,9.53
2018-05-01T05:22:37.727Z,9.45
2018-05-01T05:25:04.643Z,9.35
2018-05-01T05:27:31.592Z,9.41
2018-05-01T05:29:58.515Z,9.31
2018-05-01T05:32:25.450Z,9.16
2018-05-01T05:34:52.382Z,9.12
2018-05-01T05:37:19.318Z,9.14
2018-05-01T05:39:46.238Z,9.19
2018-05-01T05:42:13.226Z,9.27
2018-05-01T05:44:40.142Z,9.31
2018-05-01T05:47:07.082Z,9.40
2018-05-01T05:49:34.005Z,9.40
2018-05-01T05:52:00.946Z,9.50
2018-05-01T05:54:27.923Z,9.39
2018-05-01T05:56:54.813Z,9.37
2018-05-01T05:59:21.730Z,9.41
2018-05-01T06:01:48.666Z,9.46
2018-05-01T06:04:15.583Z,9.44
2018-05-01T06:06:42.526Z,9.41
2018-05-01T06:09:09.439Z,9.39
2018-05-01T06:11:36.382Z,9.47
2018-05-01T06:14:03.298Z,9.51
2018-05-01T06:16:30.252Z,9.52
2018-05-01T06:18:57.170Z,9.54
2018-05-01T06:21:24.106Z,9.68
2018-05-01T06:23:51.023Z,9.76
2018-05-01T06:26:17.966Z,9.73
2018-05-01T06:28:44.886Z,9.75
2018-05-01T06:31:11.866Z,9.81
2018-05-01T06:33:39.794Z,9.75
2018-05-01T06:36:06.729Z,9.79
2018-05-01T06:38:33.674Z,9.96
2018-05-01T06:41:00.599Z,9.96
2018-05-01T06:43:27.589Z,9.91
2018-05-01T06:45:54.547Z,9.83
2018-05-01T06:48:21.499Z,9.59
2018-05-01T06:50:48.506Z,9.48
2018-05-01T06:53:15.390Z,9.34
2018-05-01T06:55:42.314Z,9.38
2018-05-01T06:58:09.264Z,9.38
2018-05-01T07:00:36.209Z,9.37
2018-05-01T07:03:03.155Z,9.37
2018-05-01T07:05:30.094Z,9.18
2018-05-01T07:07:57.054Z,9.21
2018-05-01T07:10:24.079Z,9.17
2018-05-01T07:12:50.939Z,9.28
2018-05-01T07:15:17.863Z,9.40
2018-05-01T07:17:44.811Z,9.42
2018-05-01T07:20:11.735Z,9.53
2018-05-01T07:22:38.692Z,9.56
2018-05-01T07:25:05.605Z,9.86
2018-05-01T07:27:32.579Z,9.79
2018-05-01T07:29:59.486Z,10.10
2018-05-01T07:32:27.434Z,10.24
2018-05-01T07:34:54.358Z,10.21
2018-05-01T07:37:21.309Z,10.01
2018-05-01T07:39:48.241Z,10.09
2018-05-01T07:42:15.179Z,10.03
2018-05-01T07:44:42.128Z,9.96
2018-05-01T07:47:09.075Z,10.00
2018-05-01T07:49:35.994Z,10.10
2018-05-01T07:52:02.940Z,10.21
2018-05-01T07:54:29.861Z,10.27
2018-05-01T07:56:56.802Z,10.39
2018-05-01T07:59:23.732Z,10.45
2018-05-01T08:01:50.671Z,10.43
2018-05-01T08:04:17.614Z,10.42
2018-05-01T08:06:44.530Z,10.35
2018-05-01T08:09:11.497Z,10.33
2018-05-01T08:11:38.488Z,10.26
2018-05-01T08:14:05.451Z,10.42
2018-05-01T08:16:32.401Z,10.51
2018-05-01T08:18:59.347Z,10.26
2018-05-01T08:21:26.265Z,10.49
2018-05-01T08:23:53.207Z,10.74
2018-05-01T08:26:20.379Z,10.75
2018-05-01T08:28:47.452Z,11.04
2018-05-01T08:31:14.382Z,11.47
2018-05-01T08:33:41.329Z,11.32
2018-05-01T08:36:08.247Z,11.26
2018-05-01T08:38:35.209Z,11.46
2018-05-01T08:41:02.154Z,11.68
2018-05-01T08:43:29.102Z,12.23
2018-05-01T08:45:56.017Z,12.64
2018-05-01T08:48:22.958Z,13.27
2018-05-01T08:50:49.883Z,13.67
2018-05-01T08:53:16.912Z,13.86
2018-05-01T08:55:43.862Z,14.23
2018-05-01T08:58:10.868Z,14.05
2018-05-01T09:00:37.807Z,14.41
2018-05-01T09:03:04.757Z,14.49
2018-05-01T09:05:31.693Z,14.83
2018-05-01T09:07:58.634Z,14.52
2018-05-01T09:10:25.717Z,14.30
2018-05-01T09:12:52.671Z,13.66
2018-05-01T09:15:19.598Z,13.60
2018-05-01T09:17:46.635Z,13.57
2018-05-01T09:20:13.646Z,13.93
2018-05-01T09:22:40.581Z,14.30
2018-05-01T09:25:07.540Z,14.67
2018-05-01T09:27:34.491Z,15.07
2018-05-01T09:30:01.480Z,15.63
2018-05-01T09:32:28.407Z,15.15
2018-05-01T09:34:55.355Z,15.37
2018-05-01T09:37:22.286Z,15.01
2018-05-01T09:39:49.560Z,15.21
2018-05-01T09:42:16.525Z,15.63
2018-05-01T09:44:43.501Z,15.92
2018-05-01T09:47:10.474Z,15.64
2018-05-01T09:49:37.420Z,15.13
2018-05-01T09:52:04.378Z,14.78
2018-05-01T09:54:31.916Z,14.97
2018-05-01T09:56:59.410Z,15.41
2018-05-01T09:59:26.911Z,16.11
2018-05-01T10:01:54.867Z,17.34
2018-05-01T10:04:22.423Z,18.25
2018-05-01T10:06:49.902Z,19.07
2018-05-01T10:09:17.402Z,17.60
2018-05-01T10:11:44.874Z,17.30
2018-05-01T10:14:12.371Z,16.89
2018-05-01T10:16:39.874Z,16.82
2018-05-01T10:19:07.382Z,16.78
2018-05-01T10:21:34.913Z,16.63
2018-05-01T10:24:02.493Z,16.00
2018-05-01T10:26:29.961Z,16.15
2018-05-01T10:28:57.467Z,16.98
2018-05-01T10:31:24.969Z,16.76
2018-05-01T10:33:52.471Z,16.31
2018-05-01T10:36:19.975Z,16.37
2018-05-01T10:38:47.505Z,16.41
2018-05-01T10:41:14.957Z,16.13
2018-05-01T10:43:42.499Z,16.10
2018-05-01T10:46:09.954Z,17.15
2018-05-01T10:48:37.448Z,17.49
2018-05-01T10:51:04.950Z,17.75
2018-05-01T10:53:32.439Z,17.78
2018-05-01T10:55:59.945Z,17.72
2018-05-01T10:58:27.421Z,17.43
2018-05-01T11:00:54.930Z,17.87
2018-05-01T11:03:22.392Z,19.13
2018-05-01T11:05:49.911Z,18.58
2018-05-01T11:08:17.371Z,18.30
2018-05-01T11:10:44.859Z,17.91
2018-05-01T11:13:12.389Z,17.50
2018-05-01T11:15:39.870Z,18.11
2018-05-01T11:18:07.351Z,19.00
2018-05-01T11:20:34.842Z,21.31
2018-05-01T11:23:02.306Z,21.46
2018-05-01T11:25:29.786Z,21.57
2018-05-01T11:27:57.271Z,22.55
2018-05-01T11:30:25.682Z,23.17
2018-05-01T11:32:53.299Z,23.04
2018-05-01T11:35:20.820Z,24.18
2018-05-01T11:37:48.318Z,25.21
2018-05-01T11:40:15.838Z,25.46
2018-05-01T11:42:43.363Z,25.55
2018-05-01T11:45:10.855Z,24.49
2018-05-01T11:47:38.455Z,26.25
2018-05-01T11:50:05.974Z,26.03
2018-05-01T11:52:33.483Z,26.22
2018-05-01T11:55:01.011Z,26.76
2018-05-01T11:57:28.487Z,25.61
2018-05-01T11:59:56.005Z,25.42
2018-05-01T12:02:23.475Z,24.92
2018-05-01T12:04:50.966Z,25.42
2018-05-01T12:07:18.446Z,25.05
2018-05-01T12:09:45.975Z,25.53
2018-05-01T12:12:13.461Z,25.59
2018-05-01T12:14:40.955Z,27.00
2018-05-01T12:17:08.427Z,27.63
2018-05-01T12:19:36.423Z,28.80
2018-05-01T12:22:03.903Z,29.67
2018-05-01T12:24:31.389Z,27.59
2018-05-01T12:26:58.882Z,26.22
2018-05-01T12:29:26.765Z,27.31
2018-05-01T12:31:54.291Z,27.57
2018-05-01T12:34:21.881Z,27.75
2018-05-01T12:36:49.440Z,27.79
2018-05-01T12:39:16.895Z,27.43
2018-05-01T12:41:44.378Z,28.23
2018-05-01T12:44:11.842Z,28.95
2018-05-01T12:46:39.331Z,29.11
2018-05-01T12:49:06.826Z,30.79
2018-05-01T12:51:34.313Z,29.95
2018-05-01T12:54:01.898Z,31.76
2018-05-01T12:56:29.457Z,32.14
2018-05-01T12:58:56.943Z,31.94
2018-05-01T13:01:24.429Z,33.09
2018-05-01T13:03:51.891Z,32.82
2018-05-01T13:06:19.375Z,33.22
2018-05-01T13:08:46.845Z,32.70
2018-05-01T13:11:14.330Z,31.37
2018-05-01T13:13:41.893Z,29.76
2018-05-01T13:16:09.331Z,28.81
2018-05-01T13:18:36.795Z,29.30
2018-05-01T13:21:04.282Z,30.06
2018-05-01T13:23:31.741Z,30.23
2018-05-01T13:25:59.253Z,29.16
2018-05-01T13:28:26.747Z,29.32
2018-05-01T13:30:54.238Z,30.66
2018-05-01T13:33:21.869Z,29.29
2018-05-01T13:35:49.394Z,27.74
2018-05-01T13:38:16.896Z,26.59
2018-05-01T13:40:44.455Z,25.52
2018-05-01T13:43:12.203Z,25.50
2018-05-01T13:45:39.687Z,27.21
2018-05-01T13:48:07.241Z,30.63
2018-05-01T13:50:34.818Z,32.44
2018-05-01T13:53:02.290Z,34.23
2018-05-01T13:55:29.757Z,34.69
2018-05-01T13:57:57.251Z,33.27
2018-05-01T14:00:24.725Z,31.54
2018-05-01T14:02:52.220Z,34.67
2018-05-01T14:05:19.687Z,33.42
2018-05-01T14:07:47.171Z,32.62
2018-05-01T14:10:14.629Z,33.41
2018-05-01T14:12:42.139Z,32.24
2018-05-01T14:15:09.632Z,29.11
2018-05-01T14:17:37.130Z,32.20
2018-05-01T14:20:04.586Z,33.58
2018-05-01T14:22:32.079Z,33.06
2018-05-01T14:25:00.578Z,29.24
2018-05-01T14:27:28.226Z,26.57
2018-05-01T14:29:55.745Z,24.74
2018-05-01T14:32:23.255Z,23.62
2018-05-01T14:34:50.736Z,23.37
2018-05-01T14:37:21.330Z,23.14
2018-05-01T14:39:52.393Z,22.40
2018-05-01T14:42:20.235Z,22.34
2018-05-01T14:44:47.764Z,21.38
2018-05-01T14:47:15.243Z,21.38
2018-05-01T14:49:46.250Z,21.04
2018-05-01T14:52:17.041Z,21.05
2018-05-01T14:54:44.702Z,21.03
2018-05-01T14:57:15.767Z,20.97
2018-05-01T14:59:43.227Z,20.88
2018-05-01T15:02:10.723Z,21.52
2018-05-01T15:04:38.179Z,21.16
2018-05-01T15:07:05.759Z,21.45
2018-05-01T15:09:33.222Z,21.15
2018-05-01T15:12:00.694Z,22.53
2018-05-01T15:14:28.660Z,23.14
2018-05-01T15:16:56.565Z,23.31
2018-05-01T15:19:24.137Z,23.09
2018-05-01T15:21:51.554Z,22.78
2018-05-01T15:24:19.046Z,22.32
2018-05-01T15:26:46.498Z,21.54
2018-05-01T15:29:14.066Z,21.18
2018-05-01T15:31:41.523Z,21.07
2018-05-01T15:34:09.002Z,20.73
2018-05-01T15:36:36.478Z,20.74
2018-05-01T15:39:03.987Z,20.20
2018-05-01T15:41:31.449Z,20.01
2018-05-01T15:43:58.955Z,19.73
2018-05-01T15:46:26.422Z,19.94
2018-05-01T15:48:53.906Z,19.62
2018-05-01T15:51:21.387Z,19.31
2018-05-01T15:53:48.874Z,19.10
2018-05-01T15:56:16.363Z,18.89
2018-05-01T15:58:43.857Z,18.49
2018-05-01T16:01:11.323Z,18.52
2018-05-01T16:03:38.813Z,18.71
2018-05-01T16:06:06.278Z,18.77
2018-05-01T16:08:33.760Z,18.44
2018-05-01T16:11:01.296Z,18.24
2018-05-01T16:13:28.818Z,17.95
2018-05-01T16:15:56.286Z,17.68
2018-05-01T16:18:23.787Z,17.80
2018-05-01T16:20:51.241Z,17.81
2018-05-01T16:23:18.726Z,18.19
2018-05-01T16:25:46.182Z,18.34
2018-05-01T16:28:13.782Z,19.41
2018-05-01T16:30:41.246Z,19.74
2018-05-01T16:33:08.738Z,19.56
2018-05-01T16:35:36.219Z,20.15
2018-05-01T16:38:03.786Z,19.55
2018-05-01T16:40:31.258Z,18.85
2018-05-01T16:42:58.763Z,18.40
2018-05-01T16:45:26.242Z,18.01
2018-05-01T16:47:53.713Z,17.72
2018-05-01T16:50:21.209Z,17.53
2018-05-01T16:52:48.719Z,17.47
2018-05-01T16:55:16.209Z,17.39
2018-05-01T16:57:43.714Z,17.21
2018-05-01T17:00:11.238Z,17.24
2018-05-01T17:02:38.722Z,17.30
2018-05-01T17:05:06.207Z,17.24
2018-05-01T17:07:33.682Z,17.14
2018-05-01T17:10:01.190Z,16.94
2018-05-01T17:12:28.675Z,16.78
2018-05-01T17:14:56.224Z,16.71
2018-05-01T17:17:23.687Z,16.66
2018-05-01T17:19:51.181Z,16.70
2018-05-01T17:22:18.636Z,16.61
2018-05-01T17:24:46.115Z,16.74
2018-05-01T17:27:13.718Z,16.74
2018-05-01T17:29:41.214Z,16.76
2018-05-01T17:32:08.670Z,16.90
2018-05-01T17:34:36.173Z,16.83
2018-05-01T17:37:03.638Z,16.79
2018-05-01T17:39:32.086Z,16.70
2018-05-01T17:41:59.739Z,16.65
2018-05-01T17:44:27.270Z,16.53
2018-05-01T17:46:54.743Z,16.49
2018-05-01T17:49:22.234Z,16.42
2018-05-01T17:51:49.706Z,16.33
2018-05-01T17:54:17.193Z,16.20
2018-05-01T17:56:44.694Z,15.98
2018-05-01T17:59:12.243Z,15.81
2018-05-01T18:01:39.716Z,15.67
2018-05-01T18:04:07.212Z,15.56
2018-05-01T18:06:34.676Z,15.43
2018-05-01T18:09:02.220Z,15.39
2018-05-01T18:11:29.694Z,15.32
2018-05-01T18:13:57.198Z,15.26
2018-05-01T18:16:24.671Z,15.22
2018-05-01T18:18:52.154Z,15.19
2018-05-01T18:21:20.009Z,15.15
2018-05-01T18:23:47.567Z,15.02
2018-05-01T18:26:15.073Z,14.94
2018-05-01T18:28:42.560Z,14.85
2018-05-01T18:31:10.050Z,14.75
2018-05-01T18:33:37.563Z,14.69
2018-05-01T18:36:05.020Z,14.61
2018-05-01T18:38:32.528Z,14.51
2018-05-01T18:41:00.075Z,14.37
2018-05-01T18:43:27.567Z,14.30
2018-05-01T18:45:55.055Z,14.20
2018-05-01T18:48:22.546Z,14.14
2018-05-01T18:50:51.779Z,14.09
2018-05-01T18:53:19.329Z,14.02
2018-05-01T18:55:46.966Z,13.97
2018-05-01T18:58:14.466Z,13.89
2018-05-01T19:00:41.956Z,13.84
2018-05-01T19:03:09.416Z,13.75
2018-05-01T19:05:37.868Z,13.65
2018-05-01T19:08:05.332Z,13.52
2018-05-01T19:10:32.827Z,13.45
2018-05-01T19:13:00.306Z,13.32
2018-05-01T19:15:27.892Z,13.22
2018-05-01T19:17:55.830Z,13.15
2018-05-01T19:20:23.330Z,13.09
2018-05-01T19:22:50.794Z,13.00
2018-05-01T19:25:18.289Z,12.94
2018-05-01T19:27:45.750Z,12.91
2018-05-01T19:30:13.260Z,12.84
2018-05-01T19:32:40.739Z,12.79
2018-05-01T19:35:08.226Z,12.78
2018-05-01T19:37:35.694Z,12.72
2018-05-01T19:40:03.202Z,12.69
2018-05-01T19:42:30.667Z,12.69
2018-05-01T19:44:58.168Z,12.70
2018-05-01T19:47:25.656Z,12.68
2018-05-01T19:49:53.129Z,12.70
2018-05-01T19:52:20.638Z,12.68
2018-05-01T19:54:48.106Z,12.62
2018-05-01T19:57:15.603Z,12.57
2018-05-01T19:59:43.063Z,12.58
2018-05-01T20:02:10.615Z,12.55
2018-05-01T20:04:38.056Z,12.52
2018-05-01T20:07:05.547Z,12.52
2018-05-01T20:09:33.015Z,12.50
2018-05-01T20:12:00.509Z,12.51
2018-05-01T20:14:27.985Z,12.40
2018-05-01T20:16:55.466Z,12.28
2018-05-01T20:19:23.120Z,12.11
2018-05-01T20:21:50.623Z,11.96
2018-05-01T20:24:18.120Z,11.83
2018-05-01T20:26:45.640Z,11.70
2018-05-01T20:29:13.131Z,11.64
2018-05-01T20:31:40.635Z,11.48
2018-05-01T20:34:08.107Z,11.37
2018-05-01T20:36:36.566Z,11.25
2018-05-01T20:39:04.103Z,11.18
2018-05-01T20:41:31.595Z,11.13
2018-05-01T20:43:59.054Z,11.11
2018-05-01T20:46:26.538Z,11.15
2018-05-01T20:48:54.005Z,11.16
2018-05-01T20:51:21.475Z,11.12
2018-05-01T20:53:49.010Z,11.09
2018-05-01T20:56:16.506Z,11.08
2018-05-01T20:58:44.007Z,11.06
2018-05-01T21:01:11.466Z,11.05
2018-05-01T21:03:38.970Z,11.03
2018-05-01T21:06:06.442Z,10.98
2018-05-01T21:08:33.926Z,11.01
2018-05-01T21:11:01.390Z,10.96
2018-05-01T21:13:28.919Z,10.88
2018-05-01T21:15:56.400Z,10.72
2018-05-01T21:18:23.886Z,10.58
2018-05-01T21:20:51.363Z,10.41
2018-05-01T21:23:18.846Z,10.40
2018-05-01T21:25:46.310Z,10.43
2018-05-01T21:28:14.462Z,10.48
2018-05-01T21:30:41.930Z,10.41
2018-05-01T21:33:09.410Z,10.28
2018-05-01T21:35:36.885Z,10.28
2018-05-01T21:38:04.366Z,10.19
2018-05-01T21:40:31.833Z,10.11
2018-05-01T21:42:59.408Z,10.11
2018-05-01T21:45:26.826Z,10.16
2018-05-01T21:47:54.323Z,10.14
2018-05-01T21:50:21.857Z,10.16
2018-05-01T21:52:49.359Z,10.13
2018-05-01T21:55:17.795Z,10.13
2018-05-01T21:57:45.284Z,10.08
2018-05-01T22:00:12.749Z,10.03
2018-05-01T22:02:40.226Z,9.95
2018-05-01T22:05:07.690Z,9.88
2018-05-01T22:07:35.175Z,9.82
2018-05-01T22:10:02.735Z,9.81
2018-05-01T22:12:30.125Z,9.73
2018-05-01T22:14:57.587Z,9.64
2018-05-01T22:17:25.071Z,9.51
2018-05-01T22:19:52.536Z,9.38
2018-05-01T22:22:20.018Z,9.34
2018-05-01T22:24:47.471Z,9.36
2018-05-01T22:27:14.972Z,9.34
2018-05-01T22:29:42.425Z,9.26
2018-05-01T22:32:09.907Z,9.12
2018-05-01T22:34:37.366Z,9.00
2018-05-01T22:37:04.850Z,9.01
2018-05-01T22:39:32.310Z,9.05
2018-05-01T22:41:59.833Z,9.20
2018-05-01T22:44:27.310Z,9.28
2018-05-01T22:46:54.774Z,9.25
2018-05-01T22:49:22.260Z,9.22
2018-05-01T22:51:49.713Z,9.19
2018-05-01T22:54:17.191Z,9.17
2018-05-01T22:56:44.647Z,9.19
2018-05-01T22:59:12.121Z,9.21
2018-05-01T23:01:39.590Z,9.16
2018-05-01T23:04:07.075Z,9.06
2018-05-01T23:06:34.546Z,9.06
2018-05-01T23:09:02.024Z,9.03
2018-05-01T23:11:29.484Z,8.98
2018-05-01T23:13:56.958Z,8.96
2018-05-01T23:16:24.414Z,8.87
2018-05-01T23:18:51.893Z,8.77
2018-05-01T23:21:19.350Z,8.70
2018-05-01T23:23:46.827Z,8.66
2018-05-01T23:26:14.382Z,8.61
2018-05-01T23:28:41.859Z,8.57
2018-05-01T23:31:09.316Z,8.53
2018-05-01T23:33:36.800Z,8.49
2018-05-01T23:36:04.254Z,8.51
2018-05-01T23:38:31.725Z,8.53
2018-05-01T23:40:59.182Z,8.59
2018-05-01T23:43:26.639Z,8.67
2018-05-01T23:45:54.122Z,8.76
2018-05-01T23:48:21.579Z,8.97
2018-05-01T23:50:49.054Z,9.07
2018-05-01T23:53:16.551Z,9.09
2018-05-01T23:55:44.134Z,9.11
2018-05-01T23:58:11.597Z,9.07
